Time;durP1;ratioP1;P1;durP2;ratioP2;P2;SDS_P1;SDS_P2;PMS_P1;PMS_P2;Temp;Humidity;BMP_temperature;BMP_pressure;BME280_temperature;BME280_humidity;BME280_pressure;Samples;Min_cycle;Max_cycle;Signal;HPM_P1;HPM_P2
2022/04/07 00:02:09;;;;;;;4.25;1.63;;;;;;;;;;5048031;28;20419;-67
2022/04/07 00:04:35;;;;;;;4.70;1.73;;;;;;;;;;5047851;28;20136;-67
2022/04/07 00:07:01;;;;;;;5.53;1.63;;;;;;;;;;5047986;28;20048;-67
2022/04/07 00:09:27;;;;;;;5.80;1.67;;;;;;;;;;5047637;28;20040;-67
2022/04/07 00:11:53;;;;;;;5.03;1.67;;;;;;;;;;5047765;28;20490;-67
2022/04/07 00:14:19;;;;;;;6.35;2.00;;;;;;;;;;5047818;28;20045;-67
2022/04/07 00:16:45;;;;;;;6.63;1.58;;;;;;;;;;5047830;28;20469;-67
2022/04/07 00:19:11;;;;;;;4.15;1.58;;;;;;;;;;5048071;28;20517;-67
2022/04/07 00:21:40;;;;;;;3.60;1.75;;;;;;;;;;5047749;28;20056;-67
2022/04/07 00:24:07;;;;;;;4.47;1.42;;;;;;;;;;5047369;28;20053;-66
2022/04/07 00:26:34;;;;;;;4.32;1.20;;;;;;;;;;5047826;28;20340;-67
2022/04/07 00:29:00;;;;;;;5.47;1.60;;;;;;;;;;5047596;28;20060;-67
2022/04/07 00:31:26;;;;;;;4.47;1.50;;;;;;;;;;5047908;28;20045;-67
2022/04/07 00:33:52;;;;;;;6.32;1.70;;;;;;;;;;5047118;28;20041;-67
2022/04/07 00:36:19;;;;;;;3.95;1.50;;;;;;;;;;5047683;28;20095;-67
2022/04/07 00:38:45;;;;;;;6.03;1.40;;;;;;;;;;5049355;28;20045;-67
2022/04/07 00:41:11;;;;;;;6.05;1.52;;;;;;;;;;5050496;28;20041;-67
2022/04/07 00:43:37;;;;;;;3.97;1.25;;;;;;;;;;5051217;28;20076;-67
2022/04/07 00:46:04;;;;;;;4.78;1.52;;;;;;;;;;5051209;28;20360;-67
2022/04/07 00:48:35;;;;;;;3.65;1.30;;;;;;;;;;5051399;28;20341;-67
2022/04/07 00:51:01;;;;;;;7.00;1.60;;;;;;;;;;5050850;28;20441;-67
2022/04/07 00:53:27;;;;;;;4.05;1.45;;;;;;;;;;5051151;28;20052;-67
2022/04/07 00:55:53;;;;;;;5.93;1.92;;;;;;;;;;5050924;28;20041;-67
2022/04/07 00:58:20;;;;;;;3.65;1.55;;;;;;;;;;5050512;28;20045;-65
2022/04/07 01:00:47;;;;;;;2.85;1.20;;;;;;;;;;5050539;28;20558;-66
2022/04/07 01:03:13;;;;;;;5.15;2.10;;;;;;;;;;5051066;28;20083;-66
2022/04/07 01:05:39;;;;;;;5.82;1.77;;;;;;;;;;5050803;28;20041;-67
2022/04/07 01:08:09;;;;;;;4.70;1.63;;;;;;;;;;5050270;28;20407;-66
2022/04/07 01:10:35;;;;;;;5.15;1.35;;;;;;;;;;5050307;28;20063;-66
2022/04/07 01:13:01;;;;;;;6.22;1.50;;;;;;;;;;5050415;28;20567;-66
2022/04/07 01:15:27;;;;;;;6.05;1.60;;;;;;;;;;5050630;28;20049;-66
2022/04/07 01:17:55;;;;;;;4.93;1.60;;;;;;;;;;5050155;28;20049;-66
2022/04/07 01:20:21;;;;;;;5.95;1.92;;;;;;;;;;5031843;28;20066;-66
2022/04/07 01:22:49;;;;;;;6.63;1.80;;;;;;;;;;5050477;28;20144;-66
2022/04/07 01:25:15;;;;;;;5.82;1.33;;;;;;;;;;5050514;28;20098;-66
2022/04/07 01:27:41;;;;;;;6.85;1.65;;;;;;;;;;5050284;28;20041;-66
2022/04/07 01:30:08;;;;;;;5.28;1.48;;;;;;;;;;5050509;28;20132;-66
2022/04/07 01:32:39;;;;;;;3.85;1.27;;;;;;;;;;5050084;28;20407;-66
2022/04/07 01:35:06;;;;;;;5.88;1.75;;;;;;;;;;5050176;28;20422;-66
2022/04/07 01:37:33;;;;;;;3.35;1.42;;;;;;;;;;5050075;28;20080;-66
2022/04/07 01:40:00;;;;;;;5.43;1.88;;;;;;;;;;5049184;28;20052;-66
2022/04/07 01:42:26;;;;;;;6.57;1.50;;;;;;;;;;5050196;28;20056;-66
2022/04/07 01:44:53;;;;;;;6.75;1.80;;;;;;;;;;5049877;28;20448;-66
2022/04/07 01:47:21;;;;;;;5.40;1.45;;;;;;;;;;5050004;28;20060;-66
2022/04/07 01:49:49;;;;;;;4.97;1.75;;;;;;;;;;5030792;28;20049;-66
2022/04/07 01:52:15;;;;;;;7.33;1.73;;;;;;;;;;5049444;28;20044;-65
2022/04/07 01:54:43;;;;;;;6.18;1.83;;;;;;;;;;5049521;28;20392;-65
2022/04/07 01:57:10;;;;;;;7.40;1.70;;;;;;;;;;5049378;28;20419;-65
2022/04/07 01:59:36;;;;;;;6.60;1.40;;;;;;;;;;5049120;28;20045;-66
2022/04/07 02:02:02;;;;;;;6.43;1.50;;;;;;;;;;5049095;28;20129;-66
2022/04/07 02:04:28;;;;;;;8.05;2.22;;;;;;;;;;5048981;28;20041;-66
2022/04/07 02:06:54;;;;;;;7.75;1.80;;;;;;;;;;5048860;28;20456;-67
2022/04/07 02:09:20;;;;;;;5.63;1.60;;;;;;;;;;5030713;28;20128;-66
2022/04/07 02:11:47;;;;;;;6.68;1.67;;;;;;;;;;5031174;28;20530;-66
2022/04/07 02:14:13;;;;;;;5.38;1.50;;;;;;;;;;5048880;28;20748;-66
2022/04/07 02:16:39;;;;;;;12.70;1.70;;;;;;;;;;5048571;28;20041;-65
2022/04/07 02:19:06;;;;;;;7.53;1.85;;;;;;;;;;5049045;28;20048;-66
2022/04/07 02:21:32;;;;;;;4.47;1.60;;;;;;;;;;5048781;28;20041;-66
2022/04/07 02:23:59;;;;;;;6.65;1.48;;;;;;;;;;5048791;28;20041;-67
2022/04/07 02:26:25;;;;;;;6.47;1.90;;;;;;;;;;5049016;28;20044;-66
2022/04/07 02:28:51;;;;;;;6.72;1.75;;;;;;;;;;5047970;28;20088;-67
2022/04/07 02:31:17;;;;;;;5.93;1.48;;;;;;;;;;5048952;28;20083;-66
2022/04/07 02:33:44;;;;;;;6.90;1.42;;;;;;;;;;5048678;28;20045;-66
2022/04/07 02:36:10;;;;;;;5.35;1.38;;;;;;;;;;5048459;28;20084;-65
2022/04/07 02:38:36;;;;;;;5.90;1.80;;;;;;;;;;5048357;28;20049;-66
2022/04/07 02:41:03;;;;;;;6.60;1.70;;;;;;;;;;5047687;28;20041;-66
2022/04/07 02:43:29;;;;;;;9.30;1.98;;;;;;;;;;5048318;28;20495;-66
2022/04/07 02:45:55;;;;;;;6.30;1.73;;;;;;;;;;5048250;28;20040;-66
2022/04/07 02:48:21;;;;;;;6.57;1.40;;;;;;;;;;5048430;28;20045;-66
2022/04/07 02:50:47;;;;;;;5.00;1.23;;;;;;;;;;5048733;28;20060;-66
2022/04/07 02:53:14;;;;;;;7.45;1.95;;;;;;;;;;5047923;28;20462;-66
2022/04/07 02:55:40;;;;;;;7.78;2.05;;;;;;;;;;5048841;28;20040;-67
2022/04/07 02:58:06;;;;;;;5.40;1.40;;;;;;;;;;5048846;28;20103;-67
2022/04/07 03:00:32;;;;;;;5.38;1.75;;;;;;;;;;5048715;28;20044;-67
2022/04/07 03:02:58;;;;;;;7.93;1.60;;;;;;;;;;5048392;28;20376;-66
2022/04/07 03:05:25;;;;;;;9.18;2.38;;;;;;;;;;5048660;28;20487;-67
2022/04/07 03:07:51;;;;;;;6.70;1.70;;;;;;;;;;5048201;28;20415;-67
2022/04/07 03:10:17;;;;;;;6.65;1.80;;;;;;;;;;5048487;28;20118;-67
2022/04/07 03:12:43;;;;;;;9.80;2.25;;;;;;;;;;5048534;28;20474;-67
2022/04/07 03:15:09;;;;;;;8.90;2.20;;;;;;;;;;5048436;28;20049;-67
2022/04/07 03:17:35;;;;;;;7.82;1.70;;;;;;;;;;5048215;28;20049;-67
2022/04/07 03:20:02;;;;;;;8.00;1.65;;;;;;;;;;5047928;28;20060;-67
2022/04/07 03:22:28;;;;;;;5.38;1.67;;;;;;;;;;5048725;28;20048;-68
2022/04/07 03:24:54;;;;;;;8.55;2.20;;;;;;;;;;5048496;28;20186;-67
2022/04/07 03:27:20;;;;;;;8.98;2.00;;;;;;;;;;5030709;28;20052;-67
2022/04/07 03:29:46;;;;;;;8.27;1.90;;;;;;;;;;5048325;28;20632;-67
2022/04/07 03:32:12;;;;;;;7.32;1.67;;;;;;;;;;5047895;28;20086;-67
2022/04/07 03:34:38;;;;;;;9.10;1.95;;;;;;;;;;5048127;28;20060;-67
2022/04/07 03:37:05;;;;;;;7.82;2.03;;;;;;;;;;5048407;28;20054;-67
2022/04/07 03:39:31;;;;;;;7.85;1.80;;;;;;;;;;5048314;28;20427;-67
2022/04/07 03:41:57;;;;;;;5.95;1.50;;;;;;;;;;5047935;28;20041;-67
2022/04/07 03:44:23;;;;;;;6.88;2.00;;;;;;;;;;5048058;28;20056;-67
2022/04/07 03:46:49;;;;;;;6.35;1.75;;;;;;;;;;5048250;28;20064;-67
2022/04/07 03:49:15;;;;;;;5.43;1.83;;;;;;;;;;5047900;28;20052;-66
2022/04/07 03:51:41;;;;;;;6.45;1.70;;;;;;;;;;5048558;28;20048;-66
2022/04/07 03:54:08;;;;;;;6.30;1.80;;;;;;;;;;5047547;28;20132;-67
2022/04/07 03:56:34;;;;;;;9.27;1.80;;;;;;;;;;5048200;28;20128;-67
2022/04/07 03:59:00;;;;;;;5.53;1.83;;;;;;;;;;5047912;28;20045;-67
2022/04/07 04:01:29;;;;;;;9.50;2.10;;;;;;;;;;5048067;28;20465;-67
2022/04/07 04:03:56;;;;;;;6.40;1.83;;;;;;;;;;5048028;28;20084;-67
2022/04/07 04:06:22;;;;;;;8.25;1.70;;;;;;;;;;5047858;28;20068;-67
2022/04/07 04:08:48;;;;;;;7.63;1.70;;;;;;;;;;5047696;28;20053;-67
2022/04/07 04:11:14;;;;;;;7.30;1.65;;;;;;;;;;5047952;28;20474;-67
2022/04/07 04:13:40;;;;;;;7.10;1.83;;;;;;;;;;5049570;28;20364;-67
2022/04/07 04:16:08;;;;;;;7.60;1.70;;;;;;;;;;5051880;28;20057;-67
2022/04/07 04:18:34;;;;;;;8.02;1.90;;;;;;;;;;5052214;28;20119;-67
2022/04/07 04:21:01;;;;;;;7.95;1.58;;;;;;;;;;5051210;28;20129;-67
2022/04/07 04:23:27;;;;;;;6.05;1.65;;;;;;;;;;5051609;28;20136;-67
2022/04/07 04:25:53;;;;;;;8.32;2.08;;;;;;;;;;5033734;28;20128;-67
2022/04/07 04:28:19;;;;;;;7.63;2.03;;;;;;;;;;5051464;28;20447;-67
2022/04/07 04:30:45;;;;;;;8.63;2.20;;;;;;;;;;5033918;28;20465;-67
2022/04/07 04:33:11;;;;;;;7.72;2.30;;;;;;;;;;5051454;28;20533;-67
2022/04/07 04:35:37;;;;;;;8.90;2.13;;;;;;;;;;5050814;28;20056;-67
2022/04/07 04:38:03;;;;;;;7.43;2.13;;;;;;;;;;5051414;28;20045;-67
2022/04/07 04:40:29;;;;;;;9.02;2.30;;;;;;;;;;5050889;28;20490;-67
2022/04/07 04:42:56;;;;;;;11.23;2.50;;;;;;;;;;5051287;28;20076;-67
2022/04/07 04:45:22;;;;;;;7.03;2.20;;;;;;;;;;5051533;28;20049;-67
2022/04/07 04:47:52;;;;;;;9.30;2.47;;;;;;;;;;5050774;28;20553;-67
2022/04/07 04:50:19;;;;;;;8.73;1.83;;;;;;;;;;5051203;28;20099;-67
2022/04/07 04:52:45;;;;;;;8.50;2.15;;;;;;;;;;5050906;28;20041;-67
2022/04/07 04:55:11;;;;;;;8.25;2.00;;;;;;;;;;5033086;28;20378;-67
2022/04/07 04:57:37;;;;;;;7.78;2.33;;;;;;;;;;5050685;28;20364;-67
2022/04/07 05:00:04;;;;;;;11.15;2.10;;;;;;;;;;5032778;28;20052;-67
2022/04/07 05:02:31;;;;;;;8.60;2.40;;;;;;;;;;5051159;28;20124;-66
2022/04/07 05:04:57;;;;;;;9.35;2.05;;;;;;;;;;5050806;28;20072;-67
2022/04/07 05:07:23;;;;;;;13.63;2.40;;;;;;;;;;5050713;28;20194;-66
2022/04/07 05:09:49;;;;;;;10.45;2.10;;;;;;;;;;5050238;28;20435;-65
2022/04/07 05:12:15;;;;;;;7.43;2.30;;;;;;;;;;5051597;28;20053;-66
2022/04/07 05:14:41;;;;;;;12.80;2.38;;;;;;;;;;5048379;28;20106;-66
2022/04/07 05:17:07;;;;;;;11.48;2.17;;;;;;;;;;5050144;28;20092;-66
2022/04/07 05:19:33;;;;;;;7.03;1.90;;;;;;;;;;5050383;28;20040;-66
2022/04/07 05:21:59;;;;;;;8.02;2.17;;;;;;;;;;5050488;28;20033;-66
2022/04/07 05:24:25;;;;;;;9.68;2.00;;;;;;;;;;5050110;28;20131;-66
2022/04/07 05:26:51;;;;;;;10.82;2.28;;;;;;;;;;5049862;28;20088;-66
2022/04/07 05:29:17;;;;;;;8.13;1.70;;;;;;;;;;5050215;28;20057;-66
2022/04/07 05:31:43;;;;;;;8.07;2.10;;;;;;;;;;5050513;28;20094;-66
2022/04/07 05:34:09;;;;;;;7.80;1.67;;;;;;;;;;5049629;28;20088;-66
2022/04/07 05:36:35;;;;;;;7.00;1.52;;;;;;;;;;5050221;28;20048;-67
2022/04/07 05:39:01;;;;;;;4.80;1.65;;;;;;;;;;5049659;28;20087;-67
2022/04/07 05:41:27;;;;;;;7.85;1.90;;;;;;;;;;5050162;28;20041;-67
2022/04/07 05:43:53;;;;;;;6.10;1.48;;;;;;;;;;5049963;28;20106;-67
2022/04/07 05:46:19;;;;;;;10.27;2.45;;;;;;;;;;5049882;28;20044;-67
2022/04/07 05:48:45;;;;;;;8.75;1.73;;;;;;;;;;5032139;28;20052;-67
2022/04/07 05:51:12;;;;;;;8.27;2.10;;;;;;;;;;5049778;28;20048;-67
2022/04/07 05:53:38;;;;;;;7.20;1.95;;;;;;;;;;5032193;28;20709;-67
2022/04/07 05:56:04;;;;;;;5.00;1.58;;;;;;;;;;5049866;28;20040;-67
2022/04/07 05:58:30;;;;;;;3.90;1.50;;;;;;;;;;5049840;28;20049;-66
2022/04/07 06:00:56;;;;;;;9.23;1.90;;;;;;;;;;5049196;28;20075;-65
2022/04/07 06:03:22;;;;;;;8.77;1.60;;;;;;;;;;5049773;28;20041;-65
2022/04/07 06:05:52;;;;;;;5.63;1.27;;;;;;;;;;5049625;28;20037;-66
2022/04/07 06:08:19;;;;;;;7.22;1.70;;;;;;;;;;5049392;28;20057;-67
2022/04/07 06:10:45;;;;;;;5.35;1.20;;;;;;;;;;5048465;28;20051;-66
2022/04/07 06:13:11;;;;;;;8.43;1.70;;;;;;;;;;5049111;28;20048;-67
2022/04/07 06:15:39;;;;;;;4.90;1.40;;;;;;;;;;5049615;28;20053;-66
2022/04/07 06:18:06;;;;;;;6.57;1.42;;;;;;;;;;5049514;28;20111;-67
2022/04/07 06:20:32;;;;;;;8.10;1.98;;;;;;;;;;5049446;28;20103;-68
2022/04/07 06:22:58;;;;;;;5.35;1.58;;;;;;;;;;5049549;28;20495;-68
2022/04/07 06:25:24;;;;;;;4.95;1.63;;;;;;;;;;5049079;28;20049;-68
2022/04/07 06:27:50;;;;;;;5.55;1.77;;;;;;;;;;5049461;28;20040;-67
2022/04/07 06:30:18;;;;;;;6.00;1.30;;;;;;;;;;5049350;28;20048;-67
2022/04/07 06:32:45;;;;;;;4.55;1.35;;;;;;;;;;5049090;28;20044;-67
2022/04/07 06:35:12;;;;;;;7.20;1.10;;;;;;;;;;5049490;28;20048;-67
2022/04/07 06:37:55;;;;;;;3.88;1.33;;;;;;;;;;5048938;28;20048;-67
2022/04/07 06:40:30;;;;;;;4.25;1.30;;;;;;;;;;5048626;28;20161;-68
2022/04/07 06:42:58;;;;;;;4.28;1.40;;;;;;;;;;5049102;28;20190;-68
2022/04/07 06:45:29;;;;;;;4.22;1.10;;;;;;;;;;5048856;28;20049;-68
2022/04/07 06:47:55;;;;;;;6.28;1.40;;;;;;;;;;5048092;28;20057;-68
2022/04/07 06:50:23;;;;;;;4.28;1.35;;;;;;;;;;5030579;28;20044;-68
2022/04/07 06:52:49;;;;;;;4.38;1.30;;;;;;;;;;5030709;28;20063;-68
2022/04/07 06:55:16;;;;;;;3.83;1.05;;;;;;;;;;5030139;28;20076;-68
2022/04/07 06:57:48;;;;;;;3.60;1.10;;;;;;;;;;5048546;28;20120;-67
2022/04/07 07:00:14;;;;;;;4.43;1.10;;;;;;;;;;5048355;28;20095;-68
2022/04/07 07:02:40;;;;;;;3.15;1.25;;;;;;;;;;5048476;28;20177;-68
2022/04/07 07:05:07;;;;;;;5.10;1.20;;;;;;;;;;5048228;28;20044;-68
2022/04/07 07:07:33;;;;;;;6.68;1.23;;;;;;;;;;5048023;28;20419;-68
2022/04/07 07:09:59;;;;;;;2.53;0.77;;;;;;;;;;5048160;28;20055;-68
2022/04/07 07:12:25;;;;;;;3.22;1.10;;;;;;;;;;5048377;28;20049;-68
2022/04/07 07:14:51;;;;;;;4.72;1.00;;;;;;;;;;5047891;28;20513;-68
2022/04/07 07:17:17;;;;;;;4.18;1.15;;;;;;;;;;5030711;28;20118;-68
2022/04/07 07:19:43;;;;;;;3.90;1.00;;;;;;;;;;5047994;28;20048;-68
2022/04/07 07:22:09;;;;;;;3.53;1.20;;;;;;;;;;5047669;28;20490;-68
2022/04/07 07:24:35;;;;;;;7.32;1.10;;;;;;;;;;5048359;28;20512;-70
2022/04/07 07:27:01;;;;;;;7.57;1.08;;;;;;;;;;5048602;28;20055;-68
2022/04/07 07:29:29;;;;;;;3.83;0.93;;;;;;;;;;5048666;28;20084;-69
2022/04/07 07:31:55;;;;;;;3.53;0.85;;;;;;;;;;5030863;28;20060;-68
2022/04/07 07:34:21;;;;;;;5.40;1.00;;;;;;;;;;5026888;28;20058;-68
2022/04/07 07:36:47;;;;;;;5.13;1.00;;;;;;;;;;5027692;28;20137;-68
2022/04/07 07:39:13;;;;;;;3.35;0.90;;;;;;;;;;5029136;28;20421;-68
2022/04/07 07:41:41;;;;;;;3.97;0.80;;;;;;;;;;5028837;28;20056;-68
2022/04/07 07:44:07;;;;;;;5.40;1.10;;;;;;;;;;5029200;28;20048;-68
2022/04/07 07:46:34;;;;;;;2.33;0.80;;;;;;;;;;5029279;28;20404;-69
2022/04/07 07:49:01;;;;;;;3.00;0.70;;;;;;;;;;5032855;28;20057;-70
2022/04/07 07:51:27;;;;;;;2.47;0.90;;;;;;;;;;5032811;28;20053;-70
2022/04/07 07:53:53;;;;;;;2.78;0.90;;;;;;;;;;5032302;28;20064;-69
2022/04/07 07:56:19;;;;;;;3.28;0.80;;;;;;;;;;5031233;28;20514;-70
2022/04/07 07:58:45;;;;;;;3.28;0.98;;;;;;;;;;5032655;28;20041;-68
2022/04/07 08:01:11;;;;;;;2.78;1.00;;;;;;;;;;5031110;28;20046;-69
2022/04/07 08:03:37;;;;;;;2.28;0.77;;;;;;;;;;5031949;28;20042;-69
2022/04/07 08:06:04;;;;;;;2.83;0.90;;;;;;;;;;5032616;28;20076;-68
2022/04/07 08:08:30;;;;;;;3.47;0.80;;;;;;;;;;5032371;28;20255;-68
2022/04/07 08:10:56;;;;;;;2.30;0.90;;;;;;;;;;5031964;28;20091;-69
2022/04/07 08:13:22;;;;;;;3.20;1.00;;;;;;;;;;5031513;28;20482;-68
2022/04/07 08:15:48;;;;;;;3.35;1.00;;;;;;;;;;5043471;28;20044;-70
2022/04/07 08:18:14;;;;;;;4.05;1.02;;;;;;;;;;5050260;28;20055;-69
2022/04/07 08:20:40;;;;;;;4.28;1.10;;;;;;;;;;5049894;28;20450;-68
2022/04/07 08:23:06;;;;;;;3.70;0.90;;;;;;;;;;5051083;28;20487;-69
2022/04/07 08:25:32;;;;;;;2.85;0.63;;;;;;;;;;5051643;28;20561;-69
2022/04/07 08:27:58;;;;;;;3.03;1.00;;;;;;;;;;5051528;28;20171;-68
2022/04/07 08:30:24;;;;;;;2.10;0.65;;;;;;;;;;5045509;28;20053;-67
2022/04/07 08:32:50;;;;;;;2.92;0.68;;;;;;;;;;5042652;28;20044;-68
2022/04/07 08:35:16;;;;;;;4.55;1.17;;;;;;;;;;5041290;28;20057;-68
2022/04/07 08:37:42;;;;;;;3.38;0.80;;;;;;;;;;5051429;28;20106;-68
2022/04/07 08:40:09;;;;;;;2.97;0.95;;;;;;;;;;5071303;28;20491;-68
2022/04/07 08:42:36;;;;;;;4.03;0.90;;;;;;;;;;5071013;28;20052;-67
2022/04/07 08:45:02;;;;;;;3.97;1.00;;;;;;;;;;5071270;28;20423;-67
2022/04/07 08:47:28;;;;;;;2.42;0.70;;;;;;;;;;5071320;28;20040;-68
2022/04/07 08:49:55;;;;;;;2.80;1.10;;;;;;;;;;5070820;28;20051;-68
2022/04/07 08:52:21;;;;;;;4.80;1.25;;;;;;;;;;5070997;28;20055;-67
2022/04/07 08:54:47;;;;;;;3.60;0.93;;;;;;;;;;5070814;28;20056;-67
2022/04/07 08:57:14;;;;;;;2.30;0.80;;;;;;;;;;5071052;28;20041;-68
2022/04/07 08:59:41;;;;;;;2.45;0.90;;;;;;;;;;5069992;28;20082;-68
2022/04/07 09:02:08;;;;;;;2.65;1.20;;;;;;;;;;5069103;28;20040;-70
2022/04/07 09:04:38;;;;;;;3.42;1.30;;;;;;;;;;5053699;28;20052;-69
2022/04/07 09:07:04;;;;;;;3.72;1.35;;;;;;;;;;5067668;28;20364;-69
2022/04/07 09:09:36;;;;;;;3.75;1.63;;;;;;;;;;5050970;28;20060;-69
2022/04/07 09:12:02;;;;;;;3.53;1.73;;;;;;;;;;5065840;28;20052;-69
2022/04/07 09:14:35;;;;;;;4.78;2.15;;;;;;;;;;5070675;28;20495;-69
2022/04/07 09:17:01;;;;;;;4.40;1.58;;;;;;;;;;5069021;28;20127;-69
2022/04/07 09:19:29;;;;;;;4.90;1.88;;;;;;;;;;5052524;28;20051;-69
2022/04/07 09:22:09;;;;;;;4.40;1.80;;;;;;;;;;5069816;28;20048;-68
2022/04/07 09:24:36;;;;;;;4.38;1.63;;;;;;;;;;5052645;28;20121;-68
2022/04/07 09:27:04;;;;;;;4.63;2.10;;;;;;;;;;5041991;28;20128;-68
2022/04/07 09:29:43;;;;;;;5.53;2.22;;;;;;;;;;5069977;28;20129;-69
2022/04/07 09:32:22;;;;;;;5.10;2.20;;;;;;;;;;5069783;28;20052;-68
2022/04/07 09:34:53;;;;;;;4.07;2.08;;;;;;;;;;5069046;28;20113;-67
2022/04/07 09:37:20;;;;;;;9.25;2.88;;;;;;;;;;5069120;28;20144;-69
2022/04/07 09:39:46;;;;;;;3.75;1.70;;;;;;;;;;5069322;28;20399;-68
2022/04/07 09:42:22;;;;;;;5.35;1.77;;;;;;;;;;5068072;28;20127;-68
2022/04/07 09:44:51;;;;;;;4.80;1.95;;;;;;;;;;5069842;28;20041;-67
2022/04/07 09:47:17;;;;;;;5.43;2.42;;;;;;;;;;5069180;28;20041;-68
2022/04/07 09:49:43;;;;;;;5.88;2.45;;;;;;;;;;5069025;28;20092;-69
2022/04/07 09:52:11;;;;;;;5.57;2.95;;;;;;;;;;5069491;28;20106;-68
2022/04/07 09:54:41;;;;;;;6.60;2.25;;;;;;;;;;5051646;28;20459;-68
2022/04/07 09:57:11;;;;;;;5.20;2.40;;;;;;;;;;5068695;28;20447;-68
2022/04/07 09:59:41;;;;;;;5.07;2.15;;;;;;;;;;5067415;28;20056;-68
2022/04/07 10:02:07;;;;;;;4.78;2.13;;;;;;;;;;5068497;28;20376;-69
2022/04/07 10:04:37;;;;;;;5.63;2.00;;;;;;;;;;5068834;28;20044;-68
2022/04/07 10:07:05;;;;;;;6.57;2.17;;;;;;;;;;5068728;28;20080;-68
2022/04/07 10:09:31;;;;;;;5.50;1.87;;;;;;;;;;5068232;28;20052;-67
2022/04/07 10:11:59;;;;;;;5.43;2.30;;;;;;;;;;5068403;28;20037;-67
2022/04/07 10:14:28;;;;;;;4.88;1.88;;;;;;;;;;5069179;28;20140;-68
2022/04/07 10:16:54;;;;;;;5.80;2.10;;;;;;;;;;5067583;28;20121;-68
2022/04/07 10:19:43;;;;;;;3.88;1.70;;;;;;;;;;5068242;28;20443;-70
2022/04/07 10:22:27;;;;;;;6.57;1.90;;;;;;;;;;5068906;28;20080;-70
2022/04/07 10:25:02;;;;;;;5.47;1.90;;;;;;;;;;5068860;28;20657;-67
2022/04/07 10:27:33;;;;;;;4.78;1.60;;;;;;;;;;5068513;28;20051;-67
2022/04/07 10:30:05;;;;;;;5.05;1.60;;;;;;;;;;5068418;28;20099;-67
2022/04/07 10:32:35;;;;;;;5.15;1.98;;;;;;;;;;5068044;28;20090;-66
2022/04/07 10:35:01;;;;;;;5.75;1.95;;;;;;;;;;5067977;28;20502;-67
2022/04/07 10:37:43;;;;;;;3.63;1.50;;;;;;;;;;5068522;28;20128;-67
2022/04/07 10:40:46;;;;;;;4.75;1.98;;;;;;;;;;5067716;28;20048;-67
2022/04/07 10:43:18;;;;;;;4.25;1.38;;;;;;;;;;5026198;28;20535;-68
2022/04/07 10:45:46;;;;;;;3.00;1.40;;;;;;;;;;5061442;28;20414;-67
2022/04/07 10:48:18;;;;;;;4.25;1.48;;;;;;;;;;5066763;28;20051;-67
2022/04/07 10:50:49;;;;;;;4.63;1.70;;;;;;;;;;5067565;28;20078;-67
2022/04/07 10:53:22;;;;;;;4.95;1.60;;;;;;;;;;5064290;28;20499;-68
2022/04/07 10:56:11;;;;;;;4.03;1.80;;;;;;;;;;5067780;28;20102;-67
2022/04/07 10:58:45;;;;;;;6.22;1.70;;;;;;;;;;5062457;28;20135;-66
2022/04/07 11:01:15;;;;;;;4.13;1.60;;;;;;;;;;5067985;28;20052;-65
2022/04/07 11:03:43;;;;;;;4.60;1.52;;;;;;;;;;5067117;28;20048;-67
2022/04/07 11:06:10;;;;;;;4.10;1.65;;;;;;;;;;5068193;28;20474;-67
2022/04/07 11:08:36;;;;;;;5.18;1.88;;;;;;;;;;5067328;28;20044;-66
2022/04/07 11:11:02;;;;;;;6.93;2.17;;;;;;;;;;5068094;28;20052;-66
2022/04/07 11:13:42;;;;;;;8.20;3.03;;;;;;;;;;5067061;28;20041;-67
2022/04/07 11:16:30;;;;;;;9.30;3.55;;;;;;;;;;5067350;28;20063;-67
2022/04/07 11:19:02;;;;;;;8.43;3.65;;;;;;;;;;5066019;28;20131;-67
2022/04/07 11:21:42;;;;;;;6.88;3.45;;;;;;;;;;5067288;28;20379;-67
2022/04/07 11:24:08;;;;;;;9.77;3.80;;;;;;;;;;5067816;28;20566;-68
2022/04/07 11:26:35;;;;;;;10.25;4.70;;;;;;;;;;5051705;28;20053;-66
2022/04/07 11:29:04;;;;;;;9.30;3.67;;;;;;;;;;5068185;28;20131;-66
2022/04/07 11:31:40;;;;;;;9.68;3.90;;;;;;;;;;5062658;28;20040;-66
2022/04/07 11:34:25;;;;;;;7.22;3.50;;;;;;;;;;5048501;28;20048;-68
2022/04/07 11:36:51;;;;;;;9.60;4.82;;;;;;;;;;5048389;28;20087;-69
2022/04/07 11:39:18;;;;;;;9.65;4.50;;;;;;;;;;5048187;28;20535;-69
2022/04/07 11:41:44;;;;;;;9.43;4.53;;;;;;;;;;5064149;28;20044;-69
2022/04/07 11:44:11;;;;;;;10.77;4.65;;;;;;;;;;5068205;28;20135;-70
2022/04/07 11:46:37;;;;;;;8.75;4.75;;;;;;;;;;5067032;28;20127;-70
2022/04/07 11:49:04;;;;;;;9.27;3.90;;;;;;;;;;5067774;28;20055;-69
2022/04/07 11:51:33;;;;;;;13.32;4.30;;;;;;;;;;5066687;28;20036;-68
2022/04/07 11:53:59;;;;;;;10.90;4.57;;;;;;;;;;5059896;28;20037;-68
2022/04/07 11:56:31;;;;;;;7.88;4.18;;;;;;;;;;5030575;28;20284;-68
2022/04/07 11:58:57;;;;;;;7.68;3.58;;;;;;;;;;5062891;28;20053;-68
2022/04/07 12:01:24;;;;;;;9.40;3.60;;;;;;;;;;5067898;28;20113;-68
2022/04/07 12:03:53;;;;;;;8.00;3.30;;;;;;;;;;5067583;28;20041;-67
2022/04/07 12:06:27;;;;;;;8.18;3.33;;;;;;;;;;5068374;28;20040;-67
2022/04/07 12:08:54;;;;;;;8.68;3.30;;;;;;;;;;5067394;28;20127;-67
2022/04/07 12:11:21;;;;;;;9.85;3.45;;;;;;;;;;5061279;28;20098;-68
2022/04/07 12:13:49;;;;;;;10.07;3.20;;;;;;;;;;5067103;28;20389;-67
2022/04/07 12:16:15;;;;;;;10.43;3.08;;;;;;;;;;5067208;28;20499;-69
2022/04/07 12:18:42;;;;;;;8.27;3.03;;;;;;;;;;5067694;28;20063;-69
2022/04/07 12:21:11;;;;;;;7.35;2.72;;;;;;;;;;5067007;28;20049;-68
2022/04/07 12:23:40;;;;;;;7.97;2.70;;;;;;;;;;5067588;28;20041;-68
2022/04/07 12:26:07;;;;;;;7.03;2.80;;;;;;;;;;5066227;28;20477;-67
2022/04/07 12:28:40;;;;;;;10.35;3.08;;;;;;;;;;5067774;28;20447;-70
2022/04/07 12:31:11;;;;;;;10.95;2.90;;;;;;;;;;5067033;28;20044;-68
2022/04/07 12:33:40;;;;;;;8.40;2.35;;;;;;;;;;5066844;28;20421;-68
2022/04/07 12:36:09;;;;;;;9.32;2.55;;;;;;;;;;5070745;28;20395;-67
2022/04/07 12:38:35;;;;;;;13.13;2.63;;;;;;;;;;5070506;28;20132;-68
2022/04/07 12:41:17;;;;;;;6.22;2.40;;;;;;;;;;5070418;28;20503;-68
2022/04/07 12:43:44;;;;;;;7.65;2.47;;;;;;;;;;5070428;28;20044;-67
2022/04/07 12:46:10;;;;;;;10.32;2.65;;;;;;;;;;5070646;28;20048;-67
2022/04/07 12:48:36;;;;;;;8.50;2.50;;;;;;;;;;5069395;28;20083;-68
2022/04/07 12:51:21;;;;;;;7.07;1.98;;;;;;;;;;5070682;28;20045;-67
2022/04/07 12:53:47;;;;;;;6.28;1.90;;;;;;;;;;5070011;28;20594;-69
2022/04/07 12:56:20;;;;;;;10.13;2.33;;;;;;;;;;5070766;28;20045;-67
2022/04/07 12:58:46;;;;;;;10.38;2.72;;;;;;;;;;5070153;28;20040;-67
2022/04/07 13:01:21;;;;;;;7.20;2.40;;;;;;;;;;5052926;28;20456;-68
2022/04/07 13:03:51;;;;;;;10.15;2.03;;;;;;;;;;5070898;28;20073;-67
2022/04/07 13:06:17;;;;;;;6.05;1.98;;;;;;;;;;5070513;28;20516;-67
2022/04/07 13:08:43;;;;;;;7.47;2.38;;;;;;;;;;5060707;28;20049;-67
2022/04/07 13:11:09;;;;;;;8.90;2.30;;;;;;;;;;5069451;28;20424;-67
2022/04/07 13:13:35;;;;;;;9.73;2.10;;;;;;;;;;5070413;28;20141;-68
2022/04/07 13:16:01;;;;;;;10.45;2.20;;;;;;;;;;5069108;28;20143;-69
2022/04/07 13:18:27;;;;;;;5.05;1.88;;;;;;;;;;5052372;28;20050;-68
2022/04/07 13:20:53;;;;;;;6.68;1.85;;;;;;;;;;5067683;28;20071;-66
2022/04/07 13:23:19;;;;;;;5.43;1.90;;;;;;;;;;5045920;28;20063;-66
2022/04/07 13:25:45;;;;;;;7.70;1.90;;;;;;;;;;5069867;28;20044;-68
2022/04/07 13:28:11;;;;;;;5.78;1.75;;;;;;;;;;5089308;28;20397;-67
2022/04/07 13:30:38;;;;;;;6.82;1.95;;;;;;;;;;5088212;28;20051;-66
2022/04/07 13:33:04;;;;;;;5.18;1.75;;;;;;;;;;5089059;28;20036;-66
2022/04/07 13:35:30;;;;;;;8.85;2.35;;;;;;;;;;5056081;28;20063;-65
2022/04/07 13:37:58;;;;;;;6.93;2.05;;;;;;;;;;5056730;28;20124;-65
2022/04/07 13:40:26;;;;;;;7.72;1.70;;;;;;;;;;5089083;28;20462;-67
2022/04/07 13:42:52;;;;;;;6.28;2.13;;;;;;;;;;5087288;28;20055;-65
2022/04/07 13:45:18;;;;;;;2.95;1.55;;;;;;;;;;5085153;28;20044;-66
2022/04/07 13:47:45;;;;;;;5.20;1.42;;;;;;;;;;5069746;28;20036;-66
2022/04/07 13:50:11;;;;;;;6.65;2.03;;;;;;;;;;5067797;28;20051;-66
2022/04/07 13:52:37;;;;;;;6.10;2.00;;;;;;;;;;5088228;28;20132;-68
2022/04/07 13:55:03;;;;;;;5.28;1.30;;;;;;;;;;5086631;28;20052;-66
2022/04/07 13:57:29;;;;;;;4.32;1.52;;;;;;;;;;5087932;28;20055;-68
2022/04/07 13:59:55;;;;;;;5.45;1.75;;;;;;;;;;5088526;28;20039;-66
2022/04/07 14:02:21;;;;;;;5.57;1.70;;;;;;;;;;5085876;28;20044;-66
2022/04/07 14:04:47;;;;;;;3.58;1.40;;;;;;;;;;5069656;28;20105;-66
2022/04/07 14:07:13;;;;;;;3.53;1.45;;;;;;;;;;5070614;28;20059;-66
2022/04/07 14:09:39;;;;;;;6.20;1.50;;;;;;;;;;5087818;28;20086;-68
2022/04/07 14:12:05;;;;;;;5.07;1.33;;;;;;;;;;5087787;28;20514;-66
2022/04/07 14:14:32;;;;;;;3.58;1.40;;;;;;;;;;5087340;28;20043;-66
2022/04/07 14:16:58;;;;;;;7.05;1.48;;;;;;;;;;5088221;28;20040;-66
2022/04/07 14:19:24;;;;;;;4.32;1.23;;;;;;;;;;5087466;28;20097;-65
2022/04/07 14:21:51;;;;;;;3.50;1.30;;;;;;;;;;5087748;28;20063;-66
2022/04/07 14:24:17;;;;;;;3.05;1.05;;;;;;;;;;5087025;28;20044;-68
2022/04/07 14:26:43;;;;;;;4.00;1.15;;;;;;;;;;5087921;28;20173;-67
2022/04/07 14:29:09;;;;;;;3.30;1.13;;;;;;;;;;5066359;28;20832;-68
2022/04/07 14:31:36;;;;;;;3.55;1.17;;;;;;;;;;5070113;28;20043;-70
2022/04/07 14:34:03;;;;;;;4.45;1.10;;;;;;;;;;5082982;28;20080;-68
2022/04/07 14:36:30;;;;;;;4.22;1.00;;;;;;;;;;5085953;28;20523;-67
2022/04/07 14:38:56;;;;;;;5.25;1.10;;;;;;;;;;5069704;28;20355;-67
2022/04/07 14:41:22;;;;;;;3.78;1.20;;;;;;;;;;5087584;28;20040;-67
2022/04/07 14:43:48;;;;;;;4.18;1.20;;;;;;;;;;5086516;28;20040;-67
2022/04/07 14:46:14;;;;;;;3.80;1.10;;;;;;;;;;5069151;28;20097;-67